createdAt,value
2019-02-05T00:00:14.777Z,4.80
2019-02-05T00:02:46.033Z,4.90
2019-02-05T00:05:19.173Z,4.80
2019-02-05T00:07:50.286Z,4.80
2019-02-05T00:10:23.350Z,4.80
2019-02-05T00:13:02.959Z,4.80
2019-02-05T00:15:35.334Z,4.70
2019-02-05T00:18:10.220Z,4.70
2019-02-05T00:20:40.694Z,4.70
2019-02-05T00:23:14.929Z,4.80
2019-02-05T00:25:48.423Z,4.70
2019-02-05T00:28:21.204Z,4.70
2019-02-05T00:30:52.185Z,4.70
2019-02-05T00:33:27.405Z,4.70
2019-02-05T00:35:59.947Z,4.70
2019-02-05T00:38:36.071Z,4.60
2019-02-05T00:41:14.049Z,4.40
2019-02-05T00:43:44.884Z,4.30
2019-02-05T00:46:20.887Z,4.20
2019-02-05T00:48:55.267Z,4.20
2019-02-05T00:51:25.905Z,4.10
2019-02-05T00:54:00.102Z,4.10
2019-02-05T00:56:31.048Z,4.20
2019-02-05T00:59:02.123Z,4.10
2019-02-05T01:01:32.895Z,4.20
2019-02-05T01:04:03.184Z,4.20
2019-02-05T01:06:33.920Z,4.20
2019-02-05T01:09:08.488Z,4.20
2019-02-05T01:11:42.390Z,4.30
2019-02-05T01:14:15.634Z,4.30
2019-02-05T01:16:47.112Z,4.30
2019-02-05T01:19:17.672Z,4.40
2019-02-05T01:22:05.520Z,4.40
2019-02-05T01:24:38.437Z,4.40
2019-02-05T01:27:16.215Z,4.40
2019-02-05T01:29:48.325Z,4.40
2019-02-05T01:32:23.745Z,4.40
2019-02-05T01:34:59.012Z,4.50
2019-02-05T01:37:30.741Z,4.60
2019-02-05T01:40:01.670Z,4.50
2019-02-05T01:42:31.966Z,4.60
2019-02-05T01:45:02.494Z,4.60
2019-02-05T01:47:34.115Z,4.50
2019-02-05T01:50:05.607Z,4.50
2019-02-05T01:55:46.146Z,4.40
2019-02-05T01:58:16.829Z,4.40
2019-02-05T02:00:49.211Z,4.40
2019-02-05T02:03:19.737Z,4.40
2019-02-05T02:05:50.112Z,4.30
2019-02-05T02:08:21.327Z,4.30
2019-02-05T02:10:51.885Z,4.30
2019-02-05T02:13:22.104Z,4.30
2019-02-05T02:15:52.635Z,4.30
2019-02-05T02:18:23.508Z,4.30
2019-02-05T02:20:54.070Z,4.30
2019-02-05T02:23:25.045Z,4.30
2019-02-05T02:25:55.300Z,4.40
2019-02-05T02:28:28.091Z,4.30
2019-02-05T02:30:59.228Z,4.40
2019-02-05T02:33:30.485Z,4.50
2019-02-05T02:36:00.764Z,4.40
2019-02-05T02:38:31.291Z,4.30
2019-02-05T02:41:01.261Z,4.20
2019-02-05T02:43:31.582Z,4.20
2019-02-05T02:46:02.202Z,4.10
2019-02-05T02:48:32.146Z,4.10
2019-02-05T02:51:02.515Z,4.10
2019-02-05T02:53:33.936Z,4.10
2019-02-05T02:56:04.284Z,4.10
2019-02-05T02:58:34.663Z,4.10
2019-02-05T03:01:04.789Z,4.00
2019-02-05T03:03:34.934Z,3.90
2019-02-05T03:06:05.214Z,3.80
2019-02-05T03:08:35.522Z,3.80
2019-02-05T03:11:06.485Z,3.80
2019-02-05T03:13:36.740Z,3.80
2019-02-05T03:16:06.949Z,3.80
2019-02-05T03:18:36.980Z,3.90
2019-02-05T03:21:06.962Z,4.00
2019-02-05T03:23:41.124Z,4.00
2019-02-05T03:26:11.441Z,4.00
2019-02-05T03:28:42.113Z,4.00
2019-02-05T03:31:12.143Z,4.00
2019-02-05T03:33:42.240Z,3.90
2019-02-05T03:36:13.872Z,3.80
2019-02-05T03:38:44.088Z,3.80
2019-02-05T03:41:14.297Z,3.80
2019-02-05T03:43:44.884Z,3.80
2019-02-05T03:46:17.036Z,3.80
2019-02-05T03:48:49.653Z,3.70
2019-02-05T03:51:49.832Z,3.70
2019-02-05T03:55:03.040Z,3.70
2019-02-05T03:58:15.031Z,3.70
2019-02-05T04:01:29.287Z,3.70
2019-02-05T04:05:00.913Z,3.80
2019-02-05T04:07:59.023Z,3.80
2019-02-05T04:11:04.903Z,3.70
2019-02-05T04:14:08.337Z,3.70
2019-02-05T04:17:21.098Z,3.70
2019-02-05T04:20:22.490Z,3.70
2019-02-05T04:23:18.579Z,3.70
2019-02-05T04:26:10.823Z,3.80
2019-02-05T04:29:29.328Z,3.80
2019-02-05T04:32:27.501Z,3.80
2019-02-05T04:35:48.725Z,3.70
2019-02-05T04:38:46.284Z,3.60
2019-02-05T04:41:55.374Z,3.70
2019-02-05T04:45:04.815Z,3.70
2019-02-05T04:48:20.654Z,3.70
2019-02-05T04:51:29.366Z,3.80
2019-02-05T04:54:17.919Z,3.80
2019-02-05T04:57:13.627Z,3.70
2019-02-05T05:00:22.043Z,3.70
2019-02-05T05:03:43.741Z,3.70
2019-02-05T05:06:46.201Z,3.70
2019-02-05T05:09:53.546Z,3.80
2019-02-05T05:12:24.409Z,3.70
2019-02-05T05:14:54.829Z,3.70
2019-02-05T05:17:25.053Z,3.80
2019-02-05T05:19:55.488Z,3.70
2019-02-05T05:22:26.438Z,3.70
2019-02-05T05:24:58.850Z,3.80
2019-02-05T05:27:29.367Z,3.90
2019-02-05T05:30:00.380Z,3.90
2019-02-05T05:32:34.733Z,3.90
2019-02-05T05:35:05.729Z,4.00
2019-02-05T05:37:35.936Z,4.00
2019-02-05T05:40:07.684Z,4.00
2019-02-05T05:42:38.211Z,4.10
2019-02-05T05:45:16.700Z,4.00
2019-02-05T05:47:48.661Z,4.00
2019-02-05T05:50:21.748Z,4.00
2019-02-05T05:52:52.744Z,4.10
2019-02-05T05:55:22.882Z,4.00
2019-02-05T05:57:55.739Z,4.00
2019-02-05T06:00:27.603Z,4.00
2019-02-05T06:02:58.179Z,4.00
2019-02-05T06:05:28.560Z,3.90
2019-02-05T06:07:58.680Z,3.90
2019-02-05T06:10:29.009Z,3.90
2019-02-05T06:12:59.322Z,3.90
2019-02-05T06:15:29.450Z,3.80
2019-02-05T06:18:03.090Z,3.80
2019-02-05T06:20:35.136Z,3.80
2019-02-05T06:23:05.667Z,3.80
2019-02-05T06:25:37.680Z,3.80
2019-02-05T06:28:07.854Z,3.90
2019-02-05T06:30:38.412Z,3.90
2019-02-05T06:33:08.518Z,3.90
2019-02-05T06:35:39.689Z,4.00
2019-02-05T06:38:10.122Z,4.00
2019-02-05T06:40:40.339Z,4.00
2019-02-05T06:43:10.555Z,4.00
2019-02-05T06:45:43.855Z,4.00
2019-02-05T06:48:13.989Z,4.00
2019-02-05T06:50:44.554Z,4.00
2019-02-05T06:53:14.793Z,4.00
2019-02-05T06:55:46.533Z,4.00
2019-02-05T06:58:20.745Z,4.10
2019-02-05T07:00:51.439Z,4.10
2019-02-05T07:03:23.328Z,4.00
2019-02-05T07:05:55.673Z,4.10
2019-02-05T07:08:28.227Z,4.10
2019-02-05T07:10:58.502Z,4.20
2019-02-05T07:13:30.528Z,4.20
2019-02-05T07:16:01.310Z,4.20
2019-02-05T07:18:32.205Z,4.10
2019-02-05T07:21:04.315Z,4.10
2019-02-05T07:23:34.653Z,4.00
2019-02-05T07:26:05.269Z,4.00
2019-02-05T07:28:38.739Z,4.10
2019-02-05T07:31:10.520Z,4.00
2019-02-05T07:33:43.781Z,4.00
2019-02-05T07:36:14.036Z,4.10
2019-02-05T07:38:44.528Z,4.00
2019-02-05T07:41:15.328Z,4.00
2019-02-05T07:43:45.467Z,4.00
2019-02-05T07:46:18.390Z,4.00
2019-02-05T07:48:50.217Z,4.10
2019-02-05T07:51:22.763Z,4.10
2019-02-05T07:53:52.957Z,4.20
2019-02-05T07:56:23.186Z,4.20
2019-02-05T07:58:54.353Z,4.20
2019-02-05T08:01:25.846Z,4.20
2019-02-05T08:03:57.073Z,4.20
2019-02-05T08:06:30.429Z,4.20
2019-02-05T08:09:00.783Z,4.20
2019-02-05T08:11:35.681Z,4.20
2019-02-05T08:14:07.242Z,4.20
2019-02-05T08:16:37.599Z,4.20
2019-02-05T08:19:09.263Z,4.10
2019-02-05T08:21:39.401Z,4.10
2019-02-05T08:24:12.634Z,4.20
2019-02-05T08:26:47.300Z,4.20
2019-02-05T08:29:28.327Z,4.20
2019-02-05T08:32:03.195Z,4.20
2019-02-05T08:34:33.767Z,4.20
2019-02-05T08:37:04.575Z,4.20
2019-02-05T08:39:35.282Z,4.20
2019-02-05T08:42:05.803Z,4.20
2019-02-05T08:44:36.693Z,4.30
2019-02-05T08:47:10.014Z,4.30
2019-02-05T08:49:41.487Z,4.30
2019-02-05T08:52:13.726Z,4.50
2019-02-05T08:54:45.970Z,4.50
2019-02-05T08:57:16.941Z,4.60
2019-02-05T08:59:49.304Z,4.70
2019-02-05T09:02:19.878Z,4.50
2019-02-05T09:04:50.814Z,4.50
2019-02-05T09:07:22.856Z,4.50
2019-02-05T09:10:06.967Z,4.40
2019-02-05T09:12:39.805Z,4.50
2019-02-05T09:15:11.909Z,4.50
2019-02-05T09:17:43.684Z,4.50
2019-02-05T09:20:15.251Z,4.50
2019-02-05T09:22:45.411Z,4.60
2019-02-05T09:25:15.783Z,4.60
2019-02-05T09:27:52.271Z,4.70
2019-02-05T09:30:26.727Z,4.60
2019-02-05T09:32:58.840Z,4.60
2019-02-05T09:35:30.814Z,4.70
2019-02-05T09:38:03.908Z,4.80
2019-02-05T09:40:36.634Z,4.80
2019-02-05T09:43:07.009Z,4.70
2019-02-05T09:45:37.701Z,4.60
2019-02-05T09:48:08.366Z,4.60
2019-02-05T09:50:44.512Z,4.60
2019-02-05T09:53:14.883Z,4.80
2019-02-05T09:55:48.833Z,4.90
2019-02-05T09:58:21.269Z,4.90
2019-02-05T10:00:54.286Z,4.90
2019-02-05T10:03:26.400Z,4.90
2019-02-05T10:05:57.850Z,4.90
2019-02-05T10:08:29.977Z,4.90
2019-02-05T10:11:06.531Z,4.90
2019-02-05T10:13:38.895Z,5.00
2019-02-05T10:16:15.862Z,5.10
2019-02-05T10:18:48.183Z,5.10
2019-02-05T10:21:22.666Z,5.10
2019-02-05T10:23:59.421Z,5.10
2019-02-05T10:26:30.902Z,4.90
2019-02-05T10:29:04.173Z,4.80
2019-02-05T10:31:37.585Z,4.80
2019-02-05T10:34:15.411Z,5.00
2019-02-05T10:36:46.159Z,5.00
2019-02-05T10:39:17.384Z,5.00
2019-02-05T10:41:49.732Z,5.00
2019-02-05T10:44:20.699Z,5.20
2019-02-05T10:46:56.335Z,5.30
2019-02-05T10:49:30.970Z,5.40
2019-02-05T10:52:03.478Z,5.40
2019-02-05T10:54:37.962Z,5.40
2019-02-05T10:57:08.877Z,5.40
2019-02-05T10:59:40.025Z,5.40
2019-02-05T11:02:13.677Z,5.50
2019-02-05T11:04:45.590Z,5.50
2019-02-05T11:07:17.181Z,5.40
2019-02-05T11:09:49.722Z,5.50
2019-02-05T11:12:25.823Z,5.50
2019-02-05T11:14:56.541Z,5.60
2019-02-05T11:17:32.375Z,5.70
2019-02-05T11:20:04.347Z,5.80
2019-02-05T11:22:41.146Z,5.90
2019-02-05T11:25:13.080Z,5.90
2019-02-05T11:27:45.966Z,5.80
2019-02-05T11:30:25.105Z,5.70
2019-02-05T11:33:03.941Z,5.60
2019-02-05T11:35:41.740Z,5.60
2019-02-05T11:38:16.478Z,5.40
2019-02-05T11:40:47.997Z,5.30
2019-02-05T11:43:18.857Z,5.40
2019-02-05T11:45:53.262Z,5.60
2019-02-05T11:48:24.833Z,5.70
2019-02-05T11:51:04.982Z,5.80
2019-02-05T11:53:47.182Z,5.80
2019-02-05T11:56:21.801Z,5.70
2019-02-05T11:59:09.677Z,5.70
2019-02-05T12:01:42.162Z,5.80
2019-02-05T12:04:16.701Z,5.90
2019-02-05T12:06:50.096Z,6.00
2019-02-05T12:09:24.518Z,6.00
2019-02-05T12:11:58.434Z,6.00
2019-02-05T12:14:31.031Z,5.90
2019-02-05T12:17:01.890Z,5.70
2019-02-05T12:19:36.977Z,5.80
2019-02-05T12:22:10.015Z,5.60
2019-02-05T12:24:44.074Z,5.70
2019-02-05T12:27:15.106Z,5.70
2019-02-05T12:29:45.661Z,5.70
2019-02-05T12:32:19.390Z,5.70
2019-02-05T12:34:51.461Z,5.80
2019-02-05T12:37:22.682Z,5.90
2019-02-05T12:39:59.471Z,5.90
2019-02-05T12:42:33.581Z,6.00
2019-02-05T12:45:10.337Z,6.10
2019-02-05T12:47:43.212Z,6.20
2019-02-05T12:50:18.286Z,6.10
2019-02-05T12:52:54.482Z,6.00
2019-02-05T12:55:26.833Z,5.90
2019-02-05T12:57:58.362Z,5.90
2019-02-05T13:00:56.375Z,5.90
2019-02-05T13:03:21.400Z,6.00
2019-02-05T13:05:51.827Z,6.10
2019-02-05T13:08:28.106Z,6.20
2019-02-05T13:10:58.772Z,6.30
2019-02-05T13:13:32.185Z,6.30
2019-02-05T13:16:03.637Z,6.30
2019-02-05T13:18:33.934Z,6.30
2019-02-05T13:21:05.280Z,6.40
2019-02-05T13:23:36.286Z,6.40
2019-02-05T13:26:24.692Z,6.40
2019-02-05T13:29:00.287Z,6.30
2019-02-05T13:31:35.394Z,6.30
2019-02-05T13:34:08.803Z,6.40
2019-02-05T13:36:42.178Z,6.40
2019-02-05T13:39:17.047Z,6.40
2019-02-05T13:41:50.133Z,6.40
2019-02-05T13:44:22.105Z,6.40
2019-02-05T13:46:54.716Z,6.40
2019-02-05T13:49:28.537Z,6.40
2019-02-05T13:52:11.941Z,6.40
2019-02-05T13:55:29.592Z,6.50
2019-02-05T13:58:33.098Z,6.60
2019-02-05T14:01:19.144Z,6.60
2019-02-05T14:03:43.146Z,6.70
2019-02-05T14:06:22.448Z,6.70
2019-02-05T14:09:10.395Z,6.70
2019-02-05T14:11:39.939Z,6.80
2019-02-05T14:14:13.727Z,6.80
2019-02-05T14:16:44.287Z,6.90
2019-02-05T14:19:15.532Z,6.80
2019-02-05T14:21:46.202Z,6.80
2019-02-05T14:24:16.962Z,6.90
2019-02-05T14:26:47.305Z,6.90
2019-02-05T14:29:17.935Z,6.90
2019-02-05T14:31:48.269Z,6.90
2019-02-05T14:34:22.902Z,6.80
2019-02-05T14:36:56.543Z,6.90
2019-02-05T14:39:27.144Z,7.00
2019-02-05T14:41:57.973Z,6.90
2019-02-05T14:44:58.182Z,6.70
2019-02-05T14:47:29.198Z,6.80
2019-02-05T14:50:02.599Z,6.80
2019-02-05T14:52:38.237Z,6.80
2019-02-05T14:55:08.909Z,6.80
2019-02-05T14:57:39.320Z,6.90
2019-02-05T15:00:23.494Z,6.90
2019-02-05T15:03:07.121Z,6.90
2019-02-05T15:05:41.183Z,7.00
2019-02-05T15:08:15.746Z,6.90
2019-02-05T15:10:50.062Z,7.00
2019-02-05T15:13:20.882Z,7.00
2019-02-05T15:15:52.099Z,7.00
2019-02-05T15:18:27.359Z,7.10
2019-02-05T15:21:00.484Z,7.20
2019-02-05T15:23:36.609Z,7.10
2019-02-05T15:26:13.556Z,7.00
2019-02-05T15:28:51.027Z,7.00
2019-02-05T15:31:22.520Z,7.00
2019-02-05T15:34:05.945Z,7.00
2019-02-05T15:39:39.729Z,7.00
2019-02-05T15:42:10.869Z,6.90
2019-02-05T15:44:45.142Z,7.00
2019-02-05T15:47:24.699Z,6.90
2019-02-05T15:50:05.817Z,6.80
2019-02-05T15:52:34.944Z,6.80
2019-02-05T15:55:10.121Z,6.70
2019-02-05T15:57:41.295Z,6.70
2019-02-05T16:00:13.657Z,6.70
2019-02-05T16:02:44.891Z,6.70
2019-02-05T16:05:17.433Z,6.70
2019-02-05T16:07:48.480Z,6.60
2019-02-05T16:10:20.628Z,6.60
2019-02-05T16:12:57.058Z,6.60
2019-02-05T16:15:31.476Z,6.60
2019-02-05T16:18:06.009Z,6.50
2019-02-05T16:20:47.479Z,6.50
2019-02-05T16:23:23.340Z,6.50
2019-02-05T16:26:00.265Z,6.40
2019-02-05T16:28:33.699Z,6.30
2019-02-05T16:31:19.867Z,6.30
2019-02-05T16:33:54.417Z,6.30
2019-02-05T16:36:26.426Z,6.30
2019-02-05T16:39:14.655Z,6.30
2019-02-05T16:41:56.440Z,6.30
2019-02-05T16:44:26.601Z,6.30
2019-02-05T16:47:00.574Z,6.20
2019-02-05T16:49:32.847Z,6.10
2019-02-05T16:52:08.866Z,6.10
2019-02-05T16:54:42.173Z,6.10
2019-02-05T16:57:25.409Z,6.10
2019-02-05T16:59:57.411Z,6.10
2019-02-05T17:02:29.247Z,6.20
2019-02-05T17:05:01.065Z,6.20
2019-02-05T17:07:37.366Z,6.30
2019-02-05T17:10:16.337Z,6.30
2019-02-05T17:12:51.968Z,6.40
2019-02-05T17:15:23.780Z,6.50
2019-02-05T17:17:59.363Z,6.50
2019-02-05T17:20:38.977Z,6.50
2019-02-05T17:23:12.053Z,6.50
2019-02-05T17:26:04.126Z,6.60
2019-02-05T17:28:39.535Z,6.60
2019-02-05T17:31:13.307Z,6.70
2019-02-05T17:33:56.592Z,6.70
2019-02-05T17:36:33.734Z,6.70
2019-02-05T17:39:09.188Z,6.70
2019-02-05T17:41:46.400Z,6.70
2019-02-05T17:44:26.002Z,6.70
2019-02-05T17:47:03.342Z,6.70
2019-02-05T17:49:39.086Z,6.70
2019-02-05T17:52:16.144Z,6.80
2019-02-05T17:54:48.071Z,6.80
2019-02-05T17:57:20.026Z,6.80
2019-02-05T17:59:57.053Z,6.80
2019-02-05T18:02:33.103Z,6.70
2019-02-05T18:05:18.230Z,6.70
2019-02-05T18:08:03.806Z,6.80
2019-02-05T18:10:54.864Z,6.70
2019-02-05T18:13:29.530Z,6.70
2019-02-05T18:16:13.989Z,6.80
2019-02-05T18:18:50.904Z,6.90
2019-02-05T18:21:29.449Z,6.90
2019-02-05T18:24:17.081Z,6.90
2019-02-05T18:27:25.244Z,6.90
2019-02-05T18:29:55.879Z,6.90
2019-02-05T18:32:46.921Z,6.90
2019-02-05T18:35:20.402Z,6.80
2019-02-05T18:37:53.818Z,6.80
2019-02-05T18:40:31.433Z,6.80
2019-02-05T18:43:04.796Z,6.80
2019-02-05T18:45:41.913Z,6.90
2019-02-05T18:48:14.695Z,6.80
2019-02-05T18:50:55.374Z,6.90
2019-02-05T18:53:47.780Z,6.80
2019-02-05T18:56:47.646Z,6.80
2019-02-05T18:59:34.292Z,6.90
2019-02-05T19:02:12.297Z,6.90
2019-02-05T19:04:55.771Z,7.00
2019-02-05T19:07:33.710Z,7.00
2019-02-05T19:10:09.969Z,6.90
2019-02-05T19:12:50.067Z,7.10
2019-02-05T19:15:26.809Z,7.20
2019-02-05T19:18:17.166Z,7.10
2019-02-05T19:20:52.451Z,7.20
2019-02-05T19:23:28.301Z,7.20
2019-02-05T19:26:18.731Z,7.20
2019-02-05T19:28:56.838Z,7.10
2019-02-05T19:31:36.294Z,7.10
2019-02-05T19:34:08.627Z,7.10
2019-02-05T19:36:45.572Z,7.20
2019-02-05T19:39:20.329Z,7.10
2019-02-05T19:42:16.875Z,7.20
2019-02-05T19:45:20.357Z,7.00
2019-02-05T19:48:18.678Z,6.80
2019-02-05T19:51:19.464Z,6.80
2019-02-05T19:54:04.117Z,6.80
2019-02-05T19:56:38.988Z,6.80
2019-02-05T19:59:14.874Z,6.80
2019-02-05T20:01:59.911Z,6.70
2019-02-05T20:04:57.970Z,6.60
2019-02-05T20:07:40.437Z,6.70
2019-02-05T20:10:26.853Z,6.50
2019-02-05T20:13:40.047Z,6.50
2019-02-05T20:16:21.809Z,6.60
2019-02-05T20:19:01.420Z,6.50
2019-02-05T20:21:35.196Z,6.30
2019-02-05T20:24:12.436Z,6.30
2019-02-05T20:26:48.904Z,6.20
2019-02-05T20:29:32.826Z,6.30
2019-02-05T20:32:04.838Z,6.40
2019-02-05T20:34:43.209Z,6.40
2019-02-05T20:37:19.565Z,6.30
2019-02-05T20:40:04.179Z,6.20
2019-02-05T20:42:48.014Z,6.10
2019-02-05T20:45:24.505Z,6.10
2019-02-05T20:47:59.341Z,6.00
2019-02-05T20:50:34.794Z,5.90
2019-02-05T20:53:15.469Z,5.80
2019-02-05T20:55:56.818Z,5.80
2019-02-05T20:58:34.545Z,5.80
2019-02-05T21:01:19.817Z,5.90
2019-02-05T21:04:01.137Z,5.90
2019-02-05T21:06:30.024Z,5.80
2019-02-05T21:09:25.787Z,5.70
2019-02-05T21:12:00.781Z,5.80
2019-02-05T21:14:42.274Z,6.00
2019-02-05T21:17:21.192Z,5.90
2019-02-05T21:20:08.735Z,5.90
2019-02-05T21:22:56.785Z,5.90
2019-02-05T21:25:54.672Z,5.90
2019-02-05T21:28:28.145Z,6.00
2019-02-05T21:31:10.159Z,6.00
2019-02-05T21:33:45.944Z,6.00
2019-02-05T21:36:24.149Z,6.00
2019-02-05T21:38:58.581Z,5.90
2019-02-05T21:41:36.709Z,5.80
2019-02-05T21:44:17.919Z,5.80
2019-02-05T21:46:52.394Z,5.70
2019-02-05T21:49:27.038Z,5.70
2019-02-05T21:52:01.404Z,5.70
2019-02-05T21:54:33.231Z,5.60
2019-02-05T21:57:10.764Z,5.50
2019-02-05T21:59:50.174Z,5.50
2019-02-05T22:02:20.908Z,5.40
2019-02-05T22:04:59.042Z,5.40
2019-02-05T22:07:41.426Z,5.40
2019-02-05T22:10:21.015Z,5.30
2019-02-05T22:12:56.009Z,5.40
2019-02-05T22:15:45.704Z,5.30
2019-02-05T22:18:21.282Z,5.30
2019-02-05T22:20:55.644Z,5.30
2019-02-05T22:23:30.555Z,5.20
2019-02-05T22:26:03.352Z,5.10
2019-02-05T22:28:37.422Z,5.00
2019-02-05T22:31:21.519Z,5.00
2019-02-05T22:33:56.965Z,4.90
2019-02-05T22:36:35.906Z,4.80
2019-02-05T22:39:15.434Z,4.70
2019-02-05T22:41:46.377Z,4.70
2019-02-05T22:44:20.760Z,4.60
2019-02-05T22:46:51.750Z,4.60
2019-02-05T22:49:35.706Z,4.50
2019-02-05T22:55:56.800Z,4.50
2019-02-05T22:58:29.960Z,4.50
2019-02-05T23:01:14.606Z,4.40
2019-02-05T23:03:59.208Z,4.40
2019-02-05T23:07:09.998Z,4.30
2019-02-05T23:10:02.929Z,4.30
2019-02-05T23:12:40.786Z,4.30
2019-02-05T23:15:20.836Z,4.30
2019-02-05T23:17:55.302Z,4.20
2019-02-05T23:20:27.082Z,4.20
2019-02-05T23:23:03.826Z,4.10
2019-02-05T23:25:34.409Z,4.10
2019-02-05T23:28:05.352Z,4.10
2019-02-05T23:30:38.624Z,4.00
2019-02-05T23:33:09.937Z,4.00
2019-02-05T23:35:41.359Z,4.00
2019-02-05T23:38:16.617Z,4.00
2019-02-05T23:40:56.344Z,4.00
2019-02-05T23:43:28.337Z,4.00
2019-02-05T23:46:04.411Z,4.00
2019-02-05T23:48:36.830Z,4.00
2019-02-05T23:51:10.948Z,3.90
2019-02-05T23:53:42.625Z,3.90
2019-02-05T23:56:25.798Z,3.90
2019-02-05T23:58:57.538Z,3.80
